Time,TemperatureF,DewpointF,PressureIn,WindDirection,WindDirectionDegrees,WindSpeedMPH,WindSpeedGustMPH,Humidity,HourlyPrecipIn,Conditions,Clouds,dailyrainin,SolarRadiationWatts/m^2,SoftwareType,DateUTC
2014-01-02 00:02:00,-3.3,-10.1,30.42,NNW,344,2.2,4.0,72,0.00,OVC,,0.00,0.0,WeatherDisplay:10.37,2014-01-02 06:02:00,
2014-01-02 00:07:00,-3.5,-10.3,30.42,NNE,19,2.8,5.8,72,0.00,OVC,,0.00,0.0,WeatherDisplay:10.37,2014-01-02 06:07:00,
2014-01-02 00:12:00,-3.6,-10.4,30.42,North,355,2.5,5.0,72,0.00,OVC,,0.00,0.0,WeatherDisplay:10.37,2014-01-02 06:12:00,
2014-01-02 00:17:00,-3.8,-10.6,30.42,North,360,0.4,3.5,72,0.00,OVC,,0.00,0.0,WeatherDisplay:10.37,2014-01-02 06:17:00,
2014-01-02 00:22:00,-4.0,-10.8,30.42,North,351,2.0,4.0,72,0.00,OVC,,0.00,0.0,WeatherDisplay:10.37,2014-01-02 06:22:00,
2014-01-02 00:27:00,-4.2,-10.9,30.42,North,355,0.7,3.0,72,0.00,OVC,,0.00,0.0,WeatherDisplay:10.37,2014-01-02 06:27:00,
2014-01-02 00:32:00,-4.4,-11.1,30.41,North,5,0.8,2.3,72,0.00,OVC,,0.00,0.0,WeatherDisplay:10.37,2014-01-02 06:32:00,
2014-01-02 00:37:00,-4.6,-11.3,30.41,North,360,1.5,2.3,72,0.00,OVC,,0.00,0.0,WeatherDisplay:10.37,2014-01-02 06:37:00,
2014-01-02 00:42:00,-4.8,-11.3,30.41,North,5,2.2,3.5,73,0.00,OVC,,0.00,0.0,WeatherDisplay:10.37,2014-01-02 06:42:00,
2014-01-02 00:47:00,-5.0,-11.4,30.41,North,360,1.2,3.5,73,0.00,OVC,,0.00,0.0,WeatherDisplay:10.37,2014-01-02 06:47:00,
2014-01-02 00:52:00,-5.1,-11.5,30.41,North,360,1.0,3.5,73,0.00,OVC,,0.00,0.0,WeatherDisplay:10.37,2014-01-02 06:52:00,
2014-01-02 00:57:00,-5.3,-11.7,30.41,North,360,0.0,0.0,73,0.00,OVC,,0.00,0.0,WeatherDisplay:10.37,2014-01-02 06:57:00,
2014-01-02 01:02:00,-5.4,-11.6,30.41,North,360,1.0,2.3,74,0.00,OVC,,0.00,0.0,WeatherDisplay:10.37,2014-01-02 07:02:00,
2014-01-02 01:07:00,-5.6,-11.8,30.41,North,360,1.4,3.0,74,0.00,CLR,,0.00,0.0,WeatherDisplay:10.37,2014-01-02 07:07:00,
2014-01-02 01:12:00,-5.8,-11.9,30.41,North,9,1.0,2.3,74,0.00,CLR,,0.00,0.0,WeatherDisplay:10.37,2014-01-02 07:12:00,
2014-01-02 01:14:00,-5.9,-12.0,30.41,North,5,0.8,3.5,74,0.00,CLR,,0.00,0.0,WeatherDisplay:10.37,2014-01-02 07:14:00,
2014-01-02 01:19:00,-6.0,-12.1,30.41,North,9,1.2,2.3,74,0.00,CLR,,0.00,0.0,WeatherDisplay:10.37,2014-01-02 07:19:00,
2014-01-02 01:24:00,-6.1,-12.2,30.41,North,9,0.5,2.3,74,0.00,CLR,,0.00,0.0,WeatherDisplay:10.37,2014-01-02 07:24:00,
2014-01-02 01:29:00,-6.2,-12.3,30.42,North,9,1.5,3.5,74,0.00,CLR,,0.00,0.0,WeatherDisplay:10.37,2014-01-02 07:29:00,
2014-01-02 01:34:00,-6.3,-12.2,30.42,North,9,0.5,2.0,75,0.00,CLR,,0.00,0.0,WeatherDisplay:10.37,2014-01-02 07:34:00,
2014-01-02 01:39:00,-6.4,-12.3,30.42,NNW,343,2.0,3.5,75,0.00,CLR,,0.00,0.0,WeatherDisplay:10.37,2014-01-02 07:39:00,
2014-01-02 01:44:00,-6.5,-12.4,30.42,NNW,343,0.6,2.3,75,0.00,CLR,,0.00,0.0,WeatherDisplay:10.37,2014-01-02 07:44:00,
2014-01-02 01:49:00,-6.6,-12.5,30.41,NNW,343,0.8,2.3,75,0.00,CLR,,0.00,0.0,WeatherDisplay:10.37,2014-01-02 07:49:00,
2014-01-02 01:54:00,-6.7,-12.5,30.41,NNW,344,0.3,1.2,75,0.00,CLR,,0.00,0.0,WeatherDisplay:10.37,2014-01-02 07:54:00,
2014-01-02 01:59:00,-6.8,-12.6,30.42,NNW,346,1.0,1.2,75,0.00,CLR,,0.00,0.0,WeatherDisplay:10.37,2014-01-02 07:59:00,
2014-01-02 02:04:00,-7.0,-12.8,30.42,NNW,346,0.6,2.3,75,0.00,CLR,,0.00,0.0,WeatherDisplay:10.37,2014-01-02 08:04:00,
2014-01-02 02:09:00,-7.1,-12.7,30.42,NNW,347,1.0,3.5,76,0.00,CLR,,0.00,0.0,WeatherDisplay:10.37,2014-01-02 08:09:00,
2014-01-02 02:14:00,-7.2,-12.8,30.42,NNW,348,2.4,3.5,76,0.00,CLR,,0.00,0.0,WeatherDisplay:10.37,2014-01-02 08:14:00,
2014-01-02 02:19:00,-7.2,-12.8,30.42,North,5,0.7,2.3,76,0.00,CLR,,0.00,0.0,WeatherDisplay:10.37,2014-01-02 08:19:00,
2014-01-02 02:24:00,-7.3,-12.9,30.42,North,5,0.1,2.3,76,0.00,CLR,,0.00,0.0,WeatherDisplay:10.37,2014-01-02 08:24:00,
2014-01-02 02:29:00,-7.3,-12.9,30.42,North,5,1.2,2.3,76,0.00,CLR,,0.00,0.0,WeatherDisplay:10.37,2014-01-02 08:29:00,
2014-01-02 02:34:00,-7.4,-13.0,30.42,North,5,1.1,3.0,76,0.00,CLR,,0.00,0.0,WeatherDisplay:10.37,2014-01-02 08:34:00,
2014-01-02 02:39:00,-7.5,-13.1,30.42,North,5,0.7,2.3,76,0.00,CLR,,0.00,0.0,WeatherDisplay:10.37,2014-01-02 08:39:00,
2014-01-02 02:44:00,-7.6,-12.9,30.42,North,5,0.4,2.3,77,0.00,CLR,,0.00,0.0,WeatherDisplay:10.37,2014-01-02 08:44:00,
2014-01-02 02:49:00,-7.6,-12.9,30.42,North,355,1.4,3.5,77,0.00,CLR,,0.00,0.0,WeatherDisplay:10.37,2014-01-02 08:49:00,
2014-01-02 02:54:00,-7.7,-13.0,30.42,North,355,0.1,1.2,77,0.00,CLR,,0.00,0.0,WeatherDisplay:10.37,2014-01-02 08:54:00,
2014-01-02 02:59:00,-7.8,-13.1,30.42,North,355,0.4,2.3,77,0.00,CLR,,0.00,0.0,WeatherDisplay:10.37,2014-01-02 08:59:00,
2014-01-02 03:04:00,-8.0,-13.3,30.42,North,355,0.0,0.0,77,0.00,CLR,,0.00,0.0,WeatherDisplay:10.37,2014-01-02 09:04:00,
2014-01-02 03:09:00,-8.1,-13.4,30.42,North,355,0.3,1.2,77,0.00,CLR,,0.00,0.0,WeatherDisplay:10.37,2014-01-02 09:09:00,
2014-01-02 03:14:00,-8.3,-13.6,30.43,North,355,0.2,1.2,77,0.00,CLR,,0.00,0.0,WeatherDisplay:10.37,2014-01-02 09:14:00,
2014-01-02 03:19:00,-8.5,-13.8,30.43,North,355,0.0,1.0,77,0.00,CLR,,0.00,0.0,WeatherDisplay:10.37,2014-01-02 09:19:00,
2014-01-02 03:24:00,-8.6,-13.9,30.42,North,355,0.1,1.2,77,0.00,CLR,,0.00,0.0,WeatherDisplay:10.37,2014-01-02 09:24:00,
2014-01-02 03:29:00,-8.8,-13.8,30.42,North,355,0.9,2.3,78,0.00,CLR,,0.00,0.0,WeatherDisplay:10.37,2014-01-02 09:29:00,
2014-01-02 03:34:00,-8.9,-13.9,30.42,North,355,0.2,1.2,78,0.00,CLR,,0.00,0.0,WeatherDisplay:10.37,2014-01-02 09:34:00,
2014-01-02 03:39:00,-9.0,-14.0,30.42,North,355,1.9,3.5,78,0.00,CLR,,0.00,0.0,WeatherDisplay:10.37,2014-01-02 09:39:00,
2014-01-02 03:44:00,-9.0,-13.8,30.42,North,355,0.6,2.3,79,0.00,CLR,,0.00,0.0,WeatherDisplay:10.37,2014-01-02 09:44:00,
2014-01-02 03:49:00,-9.0,-13.8,30.42,North,355,0.9,3.0,79,0.00,CLR,,0.00,0.0,WeatherDisplay:10.37,2014-01-02 09:49:00,
2014-01-02 03:54:00,-9.0,-13.8,30.42,NNW,348,0.9,3.5,79,0.00,CLR,,0.00,0.0,WeatherDisplay:10.37,2014-01-02 09:54:00,
2014-01-02 03:59:00,-9.0,-13.8,30.42,NNW,331,1.0,3.5,79,0.00,CLR,,0.00,0.0,WeatherDisplay:10.37,2014-01-02 09:59:00,
2014-01-02 04:04:00,-9.0,-13.8,30.42,NNW,331,0.8,2.3,79,0.00,CLR,,0.00,0.0,WeatherDisplay:10.37,2014-01-02 10:04:00,
2014-01-02 04:09:00,-9.0,-13.8,30.42,NNW,331,0.0,1.2,79,0.00,CLR,,0.00,0.0,WeatherDisplay:10.37,2014-01-02 10:09:00,
2014-01-02 04:14:00,-9.2,-13.9,30.42,NNW,331,0.2,1.2,79,0.00,CLR,,0.00,0.0,WeatherDisplay:10.37,2014-01-02 10:14:00,
2014-01-02 04:19:00,-9.4,-14.1,30.42,NNW,331,0.0,1.2,79,0.00,CLR,,0.00,0.0,WeatherDisplay:10.37,2014-01-02 10:19:00,
2014-01-02 04:24:00,-9.5,-14.2,30.42,NNW,331,0.0,1.2,79,0.00,CLR,,0.00,0.0,WeatherDisplay:10.37,2014-01-02 10:24:00,
2014-01-02 04:29:00,-9.7,-14.4,30.42,NNW,333,1.1,2.3,79,0.00,CLR,,0.00,0.0,WeatherDisplay:10.37,2014-01-02 10:29:00,
2014-01-02 04:34:00,-9.8,-14.3,30.42,NNW,333,0.8,2.3,80,0.00,CLR,,0.00,0.0,WeatherDisplay:10.37,2014-01-02 10:34:00,
2014-01-02 04:39:00,-9.7,-14.2,30.42,NNW,334,1.3,2.3,80,0.00,CLR,,0.00,0.0,WeatherDisplay:10.37,2014-01-02 10:39:00,
2014-01-02 04:44:00,-9.8,-14.3,30.42,NNW,334,0.3,1.2,80,0.00,CLR,,0.00,0.0,WeatherDisplay:10.37,2014-01-02 10:44:00,
2014-01-02 04:49:00,-9.8,-14.3,30.42,NNW,334,0.3,1.2,80,0.00,CLR,,0.00,0.0,WeatherDisplay:10.37,2014-01-02 10:49:00,
2014-01-02 04:54:00,-9.9,-14.4,30.42,NNW,335,0.3,2.3,80,0.00,CLR,,0.00,0.0,WeatherDisplay:10.37,2014-01-02 10:54:00,
2014-01-02 04:59:00,-10.0,-14.5,30.42,NNW,335,1.3,2.3,80,0.00,CLR,,0.00,0.0,WeatherDisplay:10.37,2014-01-02 10:59:00,
2014-01-02 05:04:00,-10.1,-14.6,30.43,NNW,335,0.1,1.2,80,0.00,CLR,,0.00,0.0,WeatherDisplay:10.37,2014-01-02 11:04:00,
2014-01-02 05:09:00,-10.2,-14.7,30.43,NNW,335,0.1,1.2,80,0.00,CLR,,0.00,0.0,WeatherDisplay:10.37,2014-01-02 11:09:00,
2014-01-02 05:14:00,-10.4,-14.9,30.43,NNW,336,0.9,2.3,80,0.00,CLR,,0.00,0.0,WeatherDisplay:10.37,2014-01-02 11:14:00,
2014-01-02 05:19:00,-10.5,-15.0,30.43,NNW,336,0.0,1.2,80,0.00,CLR,,0.00,0.0,WeatherDisplay:10.37,2014-01-02 11:19:00,
2014-01-02 05:24:00,-10.6,-15.1,30.43,NNW,337,1.3,2.3,80,0.00,CLR,,0.00,0.0,WeatherDisplay:10.37,2014-01-02 11:24:00,
2014-01-02 05:29:00,-10.7,-15.2,30.43,NNW,338,0.3,2.3,80,0.00,CLR,,0.00,0.0,WeatherDisplay:10.37,2014-01-02 11:29:00,
2014-01-02 05:34:00,-10.8,-15.0,30.43,NNW,340,1.7,3.5,81,0.00,CLR,,0.00,0.0,WeatherDisplay:10.37,2014-01-02 11:34:00,
2014-01-02 05:39:00,-10.8,-15.0,30.42,NNW,344,1.4,2.3,81,0.00,CLR,,0.00,0.0,WeatherDisplay:10.37,2014-01-02 11:39:00,
2014-01-02 05:44:00,-10.7,-14.9,30.43,NNW,346,0.7,2.3,81,0.00,CLR,,0.00,0.0,WeatherDisplay:10.37,2014-01-02 11:44:00,
2014-01-02 05:49:00,-10.7,-14.9,30.43,NNW,346,0.2,1.2,81,0.00,CLR,,0.00,0.0,WeatherDisplay:10.37,2014-01-02 11:49:00,
2014-01-02 05:54:00,-10.8,-15.0,30.43,NNW,346,0.2,1.2,81,0.00,CLR,,0.00,0.0,WeatherDisplay:10.37,2014-01-02 11:54:00,
2014-01-02 05:59:00,-10.9,-15.1,30.43,NNW,348,0.2,1.2,81,0.00,CLR,,0.00,0.0,WeatherDisplay:10.37,2014-01-02 11:59:00,
2014-01-02 06:04:00,-11.0,-15.2,30.43,North,349,0.5,2.0,81,0.00,CLR,,0.00,0.0,WeatherDisplay:10.37,2014-01-02 12:04:00,
2014-01-02 06:09:00,-11.1,-15.3,30.44,North,350,0.7,2.3,81,0.00,CLR,,0.00,0.0,WeatherDisplay:10.37,2014-01-02 12:09:00,
2014-01-02 06:14:00,-11.1,-15.3,30.44,North,350,0.1,1.2,81,0.00,CLR,,0.00,0.0,WeatherDisplay:10.37,2014-01-02 12:14:00,
2014-01-02 06:19:00,-11.2,-15.4,30.44,North,350,0.1,2.3,81,0.00,CLR,,0.00,0.0,WeatherDisplay:10.37,2014-01-02 12:19:00,
2014-01-02 06:24:00,-11.3,-15.5,30.44,North,355,0.9,3.5,81,0.00,CLR,,0.00,0.0,WeatherDisplay:10.37,2014-01-02 12:24:00,
2014-01-02 06:29:00,-11.4,-15.6,30.45,NNW,338,1.2,3.5,81,0.00,CLR,,0.00,0.0,WeatherDisplay:10.37,2014-01-02 12:29:00,
2014-01-02 06:34:00,-11.4,-15.6,30.44,NNW,342,1.1,2.3,81,0.00,CLR,,0.00,0.0,WeatherDisplay:10.37,2014-01-02 12:34:00,
2014-01-02 06:39:00,-11.4,-15.6,30.44,NNW,348,0.6,2.3,81,0.00,CLR,,0.00,0.0,WeatherDisplay:10.37,2014-01-02 12:39:00,
2014-01-02 06:44:00,-11.5,-15.7,30.45,North,355,1.0,2.0,81,0.00,CLR,,0.00,0.0,WeatherDisplay:10.37,2014-01-02 12:44:00,
2014-01-02 06:49:00,-11.5,-15.7,30.45,North,355,0.5,2.3,81,0.00,CLR,,0.00,0.0,WeatherDisplay:10.37,2014-01-02 12:49:00,
2014-01-02 06:54:00,-11.6,-15.8,30.45,North,355,0.7,2.3,81,0.00,CLR,,0.00,0.0,WeatherDisplay:10.37,2014-01-02 12:54:00,
2014-01-02 06:59:00,-11.7,-15.9,30.45,North,11,1.4,3.0,81,0.00,CLR,,0.00,0.0,WeatherDisplay:10.37,2014-01-02 12:59:00,
2014-01-02 07:04:00,-11.8,-16.0,30.45,North,11,0.7,2.3,81,0.00,CLR,,0.00,0.0,WeatherDisplay:10.37,2014-01-02 13:04:00,
2014-01-02 07:09:00,-11.8,-16.0,30.44,North,355,1.3,3.5,81,0.00,CLR,,0.00,0.0,WeatherDisplay:10.37,2014-01-02 13:09:00,
2014-01-02 07:14:00,-11.9,-16.1,30.45,North,350,0.5,2.3,81,0.00,CLR,,0.00,0.0,WeatherDisplay:10.37,2014-01-02 13:14:00,
2014-01-02 07:19:00,-12.0,-16.2,30.45,NNW,339,0.5,2.3,81,0.00,CLR,,0.00,0.0,WeatherDisplay:10.37,2014-01-02 13:19:00,
2014-01-02 07:24:00,-12.0,-16.2,30.44,North,355,0.5,2.3,81,0.00,CLR,,0.00,0.0,WeatherDisplay:10.37,2014-01-02 13:24:00,
2014-01-02 07:29:00,-12.0,-16.2,30.45,North,355,0.3,2.0,81,0.00,CLR,,0.00,0.0,WeatherDisplay:10.37,2014-01-02 13:29:00,
2014-01-02 07:34:00,-12.1,-16.3,30.45,North,355,0.3,1.2,81,0.00,CLR,,0.00,0.0,WeatherDisplay:10.37,2014-01-02 13:34:00,
2014-01-02 07:39:00,-12.2,-16.4,30.45,North,355,1.1,2.3,81,0.00,CLR,,0.00,0.0,WeatherDisplay:10.37,2014-01-02 13:39:00,
2014-01-02 07:44:00,-12.3,-16.5,30.45,North,355,1.3,2.3,81,0.00,CLR,,0.00,0.0,WeatherDisplay:10.37,2014-01-02 13:44:00,
2014-01-02 07:49:00,-12.4,-16.6,30.45,North,355,0.0,1.2,81,0.00,CLR,,0.00,0.0,WeatherDisplay:10.37,2014-01-02 13:49:00,
2014-01-02 07:54:00,-12.5,-16.7,30.45,North,355,1.0,3.0,81,0.00,CLR,,0.00,0.0,WeatherDisplay:10.37,2014-01-02 13:54:00,
2014-01-02 07:59:00,-12.6,-16.8,30.44,North,360,1.9,3.0,81,0.00,CLR,,0.00,5.0,WeatherDisplay:10.37,2014-01-02 13:59:00,
2014-01-02 08:04:00,-12.6,-16.8,30.44,North,5,1.3,2.3,81,0.00,CLR,,0.00,7.0,WeatherDisplay:10.37,2014-01-02 14:04:00,
2014-01-02 08:09:00,-12.6,-16.8,30.44,North,5,0.6,2.3,81,0.00,CLR,,0.00,9.0,WeatherDisplay:10.37,2014-01-02 14:09:00,
2014-01-02 08:14:00,-12.6,-16.8,30.45,North,5,0.1,2.3,81,0.00,CLR,,0.00,11.0,WeatherDisplay:10.37,2014-01-02 14:14:00,
2014-01-02 08:19:00,-12.6,-16.8,30.45,North,5,0.0,1.2,81,0.00,CLR,,0.00,12.0,WeatherDisplay:10.37,2014-01-02 14:19:00,
2014-01-02 08:24:00,-12.6,-16.8,30.45,North,5,0.6,3.0,81,0.00,CLR,,0.00,14.0,WeatherDisplay:10.37,2014-01-02 14:24:00,
2014-01-02 08:29:00,-12.6,-16.8,30.45,North,5,0.8,2.3,81,0.00,CLR,,0.00,16.0,WeatherDisplay:10.37,2014-01-02 14:29:00,
2014-01-02 08:34:00,-12.6,-16.8,30.45,NNW,334,1.0,1.2,81,0.00,CLR,,0.00,18.0,WeatherDisplay:10.37,2014-01-02 14:34:00,
2014-01-02 08:39:00,-12.6,-16.8,30.46,NNW,335,1.3,3.5,81,0.00,CLR,,0.00,19.0,WeatherDisplay:10.37,2014-01-02 14:39:00,
2014-01-02 08:44:00,-12.5,-16.7,30.46,North,5,1.7,3.0,81,0.00,CLR,,0.00,19.0,WeatherDisplay:10.37,2014-01-02 14:44:00,
2014-01-02 08:49:00,-12.4,-16.8,30.46,North,355,0.9,3.0,80,0.00,CLR,,0.00,21.0,WeatherDisplay:10.37,2014-01-02 14:49:00,
2014-01-02 08:54:00,-12.3,-16.7,30.46,North,355,1.1,3.5,80,0.00,CLR,,0.00,23.0,WeatherDisplay:10.37,2014-01-02 14:54:00,
2014-01-02 08:59:00,-12.1,-16.5,30.46,North,355,1.3,4.0,80,0.00,CLR,,0.00,25.0,WeatherDisplay:10.37,2014-01-02 14:59:00,
2014-01-02 09:04:00,-12.0,-16.4,30.47,NNW,343,1.2,3.5,80,0.00,CLR,,0.00,25.0,WeatherDisplay:10.37,2014-01-02 15:04:00,
2014-01-02 09:09:00,-11.7,-16.1,30.47,NNW,343,3.1,4.0,80,0.00,CLR,,0.00,30.0,WeatherDisplay:10.37,2014-01-02 15:09:00,
2014-01-02 09:14:00,-11.4,-15.8,30.48,North,350,0.4,3.5,80,0.00,CLR,,0.00,28.0,WeatherDisplay:10.37,2014-01-02 15:14:00,
2014-01-02 09:19:00,-11.1,-15.6,30.47,North,355,1.8,3.5,80,0.00,CLR,,0.00,32.0,WeatherDisplay:10.37,2014-01-02 15:19:00,
2014-01-02 09:24:00,-10.6,-15.1,30.47,NNW,344,1.1,3.5,80,0.00,CLR,,0.00,76.0,WeatherDisplay:10.37,2014-01-02 15:24:00,
2014-01-02 09:29:00,-9.9,-14.6,30.46,NNW,347,0.8,2.3,79,0.00,CLR,,0.00,130.0,WeatherDisplay:10.37,2014-01-02 15:29:00,
2014-01-02 09:34:00,-9.8,-14.8,30.46,NNW,340,1.9,3.5,78,0.00,CLR,,0.00,104.0,WeatherDisplay:10.37,2014-01-02 15:34:00,
2014-01-02 09:39:00,-9.3,-14.3,30.47,NNW,333,1.6,3.5,78,0.00,CLR,,0.00,97.0,WeatherDisplay:10.37,2014-01-02 15:39:00,
2014-01-02 09:44:00,-8.9,-13.9,30.47,NNW,333,2.5,5.0,78,0.00,CLR,,0.00,176.0,WeatherDisplay:10.37,2014-01-02 15:44:00,
2014-01-02 09:49:00,-8.6,-13.9,30.47,NNW,330,1.0,3.5,77,0.00,CLR,,0.00,197.0,WeatherDisplay:10.37,2014-01-02 15:49:00,
2014-01-02 09:54:00,-8.3,-13.8,30.48,NW,317,2.7,4.0,76,0.00,CLR,,0.00,211.0,WeatherDisplay:10.37,2014-01-02 15:54:00,
2014-01-02 09:59:00,-7.9,-13.5,30.48,NW,324,0.9,2.3,76,0.00,CLR,,0.00,221.0,WeatherDisplay:10.37,2014-01-02 15:59:00,
2014-01-02 10:04:00,-7.5,-13.3,30.48,NW,320,1.0,1.2,75,0.00,CLR,,0.00,234.0,WeatherDisplay:10.37,2014-01-02 16:04:00,
2014-01-02 10:09:00,-7.1,-13.2,30.48,NNW,338,2.8,6.0,74,0.00,CLR,,0.00,246.0,WeatherDisplay:10.37,2014-01-02 16:09:00,
2014-01-02 10:14:00,-6.8,-13.2,30.48,NNW,336,1.8,3.5,73,0.00,CLR,,0.00,253.0,WeatherDisplay:10.37,2014-01-02 16:14:00,
2014-01-02 10:19:00,-6.5,-12.9,30.48,NNW,329,1.5,3.5,73,0.00,CLR,,0.00,264.0,WeatherDisplay:10.37,2014-01-02 16:19:00,
2014-01-02 10:24:00,-6.2,-12.9,30.49,NNE,15,2.5,5.8,72,0.00,CLR,,0.00,272.0,WeatherDisplay:10.37,2014-01-02 16:24:00,
2014-01-02 10:29:00,-6.2,-13.2,30.49,NNW,327,0.2,3.5,71,0.00,CLR,,0.00,281.0,WeatherDisplay:10.37,2014-01-02 16:29:00,
2014-01-02 10:34:00,-6.0,-13.0,30.49,NNW,336,0.7,3.5,71,0.00,CLR,,0.00,290.0,WeatherDisplay:10.37,2014-01-02 16:34:00,
2014-01-02 10:39:00,-5.7,-13.0,30.49,North,5,1.5,5.0,70,0.00,CLR,,0.00,294.0,WeatherDisplay:10.37,2014-01-02 16:39:00,
2014-01-02 10:44:00,-5.4,-13.0,30.49,North,5,1.0,3.0,69,0.00,CLR,,0.00,302.0,WeatherDisplay:10.37,2014-01-02 16:44:00,
2014-01-02 10:49:00,-5.2,-12.8,30.49,NNW,347,0.9,2.3,69,0.00,CLR,,0.00,309.0,WeatherDisplay:10.37,2014-01-02 16:49:00,
2014-01-02 10:54:00,-4.9,-12.8,30.49,NNW,339,4.3,6.0,68,0.00,CLR,,0.00,318.0,WeatherDisplay:10.37,2014-01-02 16:54:00,
2014-01-02 10:59:00,-4.7,-12.6,30.48,NNW,327,2.0,4.0,68,0.00,CLR,,0.00,322.0,WeatherDisplay:10.37,2014-01-02 16:59:00,
2014-01-02 11:04:00,-4.4,-12.6,30.48,North,355,2.0,5.0,67,0.00,CLR,,0.00,327.0,WeatherDisplay:10.37,2014-01-02 17:04:00,
2014-01-02 11:09:00,-4.4,-12.6,30.48,NNW,332,2.0,5.0,67,0.00,CLR,,0.00,334.0,WeatherDisplay:10.37,2014-01-02 17:09:00,
2014-01-02 11:14:00,-4.1,-12.3,30.48,NNW,327,5.0,5.8,67,0.00,CLR,,0.00,338.0,WeatherDisplay:10.37,2014-01-02 17:14:00,
2014-01-02 11:19:00,-3.6,-12.1,30.48,NW,321,2.2,3.5,66,0.00,CLR,,0.00,345.0,WeatherDisplay:10.37,2014-01-02 17:19:00,
2014-01-02 11:24:00,-3.4,-11.9,30.48,NNW,336,3.8,5.0,66,0.00,CLR,,0.00,350.0,WeatherDisplay:10.37,2014-01-02 17:24:00,
2014-01-02 11:29:00,-3.2,-11.7,30.48,NNW,327,1.9,3.5,66,0.00,CLR,,0.00,352.0,WeatherDisplay:10.37,2014-01-02 17:29:00,
2014-01-02 11:34:00,-3.0,-11.9,30.48,NNW,329,3.6,6.0,65,0.00,CLR,,0.00,357.0,WeatherDisplay:10.37,2014-01-02 17:34:00,
2014-01-02 11:39:00,-2.8,-12.0,30.47,NW,320,1.3,3.5,64,0.00,CLR,,0.00,360.0,WeatherDisplay:10.37,2014-01-02 17:39:00,
2014-01-02 11:44:00,-2.4,-11.6,30.47,NNE,13,4.1,6.0,64,0.00,CLR,,0.00,364.0,WeatherDisplay:10.37,2014-01-02 17:44:00,
2014-01-02 11:49:00,-2.1,-11.6,30.47,NW,315,4.0,7.0,63,0.00,CLR,,0.00,367.0,WeatherDisplay:10.37,2014-01-02 17:49:00,
2014-01-02 11:54:00,-2.0,-11.9,30.46,NW,324,2.4,5.0,62,0.00,CLR,,0.00,369.0,WeatherDisplay:10.37,2014-01-02 17:54:00,
2014-01-02 11:59:00,-1.9,-11.8,30.46,NW,312,3.0,4.0,62,0.00,CLR,,0.00,371.0,WeatherDisplay:10.37,2014-01-02 17:59:00,
2014-01-02 12:04:00,-1.7,-11.2,30.46,NW,313,2.2,4.0,63,0.00,CLR,,0.00,373.0,WeatherDisplay:10.37,2014-01-02 18:04:00,
2014-01-02 12:09:00,-1.3,-11.2,30.45,NNW,327,2.6,4.0,62,0.00,CLR,,0.00,374.0,WeatherDisplay:10.37,2014-01-02 18:09:00,
2014-01-02 12:14:00,-1.1,-11.3,30.45,NNW,329,3.4,5.0,61,0.00,CLR,,0.00,376.0,WeatherDisplay:10.37,2014-01-02 18:14:00,
2014-01-02 12:19:00,-1.0,-11.6,30.46,NNW,331,3.2,5.8,60,0.00,CLR,,0.00,376.0,WeatherDisplay:10.37,2014-01-02 18:19:00,
2014-01-02 12:24:00,-1.0,-11.6,30.46,NNW,343,3.9,6.0,60,0.00,CLR,,0.00,376.0,WeatherDisplay:10.37,2014-01-02 18:24:00,
2014-01-02 12:29:00,-0.9,-11.5,30.45,NW,316,3.1,5.0,60,0.00,CLR,,0.00,376.0,WeatherDisplay:10.37,2014-01-02 18:29:00,
2014-01-02 12:34:00,-0.7,-11.6,30.45,NNW,338,3.9,6.0,59,0.00,CLR,,0.00,374.0,WeatherDisplay:10.37,2014-01-02 18:34:00,
2014-01-02 12:39:00,-0.6,-11.9,30.44,NNW,346,1.6,4.0,58,0.00,CLR,,0.00,374.0,WeatherDisplay:10.37,2014-01-02 18:39:00,
2014-01-02 12:44:00,-0.4,-11.7,30.44,NNW,329,2.2,4.0,58,0.00,CLR,,0.00,374.0,WeatherDisplay:10.37,2014-01-02 18:44:00,
2014-01-02 12:49:00,-0.3,-11.6,30.44,NW,323,1.8,3.0,58,0.00,CLR,,0.00,371.0,WeatherDisplay:10.37,2014-01-02 18:49:00,
2014-01-02 12:54:00,-0.2,-11.8,30.44,North,350,2.7,4.6,57,0.00,CLR,,0.00,371.0,WeatherDisplay:10.37,2014-01-02 18:54:00,
2014-01-02 12:59:00,-0.1,-11.7,30.43,NW,321,2.4,4.0,57,0.00,CLR,,0.00,367.0,WeatherDisplay:10.37,2014-01-02 18:59:00,
2014-01-02 13:04:00,0.0,-11.6,30.43,NW,322,2.1,4.0,57,0.00,CLR,,0.00,366.0,WeatherDisplay:10.37,2014-01-02 19:04:00,
2014-01-02 13:09:00,0.2,-11.8,30.44,North,355,2.4,5.0,56,0.00,CLR,,0.00,362.0,WeatherDisplay:10.37,2014-01-02 19:09:00,
2014-01-02 13:14:00,0.4,-11.6,30.44,NW,318,2.7,6.0,56,0.00,CLR,,0.00,359.0,WeatherDisplay:10.37,2014-01-02 19:14:00,
2014-01-02 13:19:00,0.5,-11.9,30.44,NW,325,3.0,5.8,55,0.00,CLR,,0.00,353.0,WeatherDisplay:10.37,2014-01-02 19:19:00,
2014-01-02 13:24:00,0.6,-11.8,30.44,NNW,327,2.1,5.0,55,0.00,CLR,,0.00,353.0,WeatherDisplay:10.37,2014-01-02 19:24:00,
2014-01-02 13:29:00,0.6,-11.8,30.44,North,360,5.2,7.0,55,0.00,CLR,,0.00,345.0,WeatherDisplay:10.37,2014-01-02 19:29:00,
2014-01-02 13:34:00,0.6,-11.8,30.44,NNW,332,1.1,2.3,55,0.00,CLR,,0.00,343.0,WeatherDisplay:10.37,2014-01-02 19:34:00,
2014-01-02 13:39:00,0.6,-11.8,30.44,NNW,336,1.4,4.0,55,0.00,CLR,,0.00,336.0,WeatherDisplay:10.37,2014-01-02 19:39:00,
2014-01-02 13:44:00,0.5,-12.3,30.45,NNW,337,1.0,2.3,54,0.00,CLR,,0.00,330.0,WeatherDisplay:10.37,2014-01-02 19:44:00,
2014-01-02 13:49:00,0.8,-11.6,30.44,NW,320,1.0,2.3,55,0.00,CLR,,0.00,325.0,WeatherDisplay:10.37,2014-01-02 19:49:00,
2014-01-02 13:54:00,0.9,-11.5,30.44,North,355,2.7,5.0,55,0.00,CLR,,0.00,318.0,WeatherDisplay:10.37,2014-01-02 19:54:00,
2014-01-02 13:59:00,1.0,-11.8,30.43,NW,323,1.4,3.5,54,0.00,CLR,,0.00,311.0,WeatherDisplay:10.37,2014-01-02 19:59:00,
2014-01-02 14:04:00,1.1,-11.3,30.43,NW,319,1.6,4.6,55,0.00,CLR,,0.00,304.0,WeatherDisplay:10.37,2014-01-02 20:04:00,
2014-01-02 14:09:00,1.0,-11.4,30.43,NW,319,2.0,3.5,55,0.00,CLR,,0.00,295.0,WeatherDisplay:10.37,2014-01-02 20:09:00,
2014-01-02 14:14:00,0.7,-12.1,30.43,NW,320,1.1,3.0,54,0.00,CLR,,0.00,287.0,WeatherDisplay:10.37,2014-01-02 20:14:00,
2014-01-02 14:19:00,0.9,-11.5,30.43,NW,320,2.2,4.0,55,0.00,CLR,,0.00,278.0,WeatherDisplay:10.37,2014-01-02 20:19:00,
2014-01-02 14:24:00,1.0,-11.4,30.42,NW,320,2.8,4.0,55,0.00,CLR,,0.00,271.0,WeatherDisplay:10.37,2014-01-02 20:24:00,
2014-01-02 14:29:00,1.2,-11.2,30.42,NW,322,1.8,3.5,55,0.00,CLR,,0.00,258.0,WeatherDisplay:10.37,2014-01-02 20:29:00,
2014-01-02 14:34:00,1.3,-11.1,30.43,NW,321,2.3,3.5,55,0.00,CLR,,0.00,250.0,WeatherDisplay:10.37,2014-01-02 20:34:00,
2014-01-02 14:39:00,1.2,-11.6,30.44,NW,322,1.7,3.5,54,0.00,CLR,,0.00,239.0,WeatherDisplay:10.37,2014-01-02 20:39:00,
2014-01-02 14:44:00,1.2,-11.2,30.44,NW,323,0.8,2.3,55,0.00,CLR,,0.00,227.0,WeatherDisplay:10.37,2014-01-02 20:44:00,
2014-01-02 14:49:00,1.6,-10.9,30.44,NW,323,0.7,2.3,55,0.00,CLR,,0.00,213.0,WeatherDisplay:10.37,2014-01-02 20:49:00,
2014-01-02 14:54:00,1.7,-11.1,30.45,NW,323,0.3,2.3,54,0.00,CLR,,0.00,200.0,WeatherDisplay:10.37,2014-01-02 20:54:00,
2014-01-02 14:59:00,1.7,-11.1,30.45,NW,324,0.0,1.2,54,0.00,CLR,,0.00,188.0,WeatherDisplay:10.37,2014-01-02 20:59:00,
2014-01-02 15:04:00,1.8,-11.0,30.44,NW,323,2.9,5.0,54,0.00,CLR,,0.00,176.0,WeatherDisplay:10.37,2014-01-02 21:04:00,
2014-01-02 15:09:00,1.8,-11.0,30.44,NW,324,2.3,3.5,54,0.00,CLR,,0.00,167.0,WeatherDisplay:10.37,2014-01-02 21:09:00,
2014-01-02 15:14:00,1.9,-11.0,30.45,NNW,345,1.0,3.0,54,0.00,CLR,,0.00,151.0,WeatherDisplay:10.37,2014-01-02 21:14:00,
2014-01-02 15:19:00,1.6,-11.2,30.45,NNW,333,2.6,4.0,54,0.00,CLR,,0.00,137.0,WeatherDisplay:10.37,2014-01-02 21:19:00,
2014-01-02 15:24:00,1.6,-11.2,30.44,NNW,339,1.5,3.5,54,0.00,CLR,,0.00,128.0,WeatherDisplay:10.37,2014-01-02 21:24:00,
2014-01-02 15:29:00,1.4,-11.4,30.44,North,5,0.6,2.0,54,0.00,CLR,,0.00,104.0,WeatherDisplay:10.37,2014-01-02 21:29:00,
2014-01-02 15:34:00,1.2,-11.6,30.44,NW,324,1.2,3.5,54,0.00,CLR,,0.00,70.0,WeatherDisplay:10.37,2014-01-02 21:34:00,
2014-01-02 15:39:00,0.9,-11.5,30.44,NW,325,0.1,2.3,55,0.00,CLR,,0.00,60.0,WeatherDisplay:10.37,2014-01-02 21:39:00,
2014-01-02 15:44:00,0.7,-11.7,30.44,NW,326,1.4,4.0,55,0.00,CLR,,0.00,63.0,WeatherDisplay:10.37,2014-01-02 21:44:00,
2014-01-02 15:49:00,0.8,-11.3,30.44,NW,319,2.6,3.5,56,0.00,CLR,,0.00,47.0,WeatherDisplay:10.37,2014-01-02 21:49:00,
2014-01-02 15:54:00,0.8,-11.3,30.44,NW,320,1.7,3.5,56,0.00,CLR,,0.00,40.0,WeatherDisplay:10.37,2014-01-02 21:54:00,
2014-01-02 15:59:00,0.6,-11.4,30.44,NW,319,1.5,3.5,56,0.00,CLR,,0.00,32.0,WeatherDisplay:10.37,2014-01-02 21:59:00,
2014-01-02 16:04:00,0.2,-11.8,30.44,NW,325,1.1,3.5,56,0.00,CLR,,0.00,26.0,WeatherDisplay:10.37,2014-01-02 22:04:00,
2014-01-02 16:09:00,0.0,-12.0,30.44,NNW,327,1.4,3.5,56,0.00,CLR,,0.00,23.0,WeatherDisplay:10.37,2014-01-02 22:09:00,
2014-01-02 16:14:00,-0.3,-12.3,30.43,NNW,330,0.7,3.0,56,0.00,CLR,,0.00,18.0,WeatherDisplay:10.37,2014-01-02 22:14:00,
2014-01-02 16:19:00,-0.7,-12.7,30.44,NNW,330,0.4,1.2,56,0.00,CLR,,0.00,16.0,WeatherDisplay:10.37,2014-01-02 22:19:00,
2014-01-02 16:24:00,-0.8,-12.1,30.44,NW,326,1.5,4.0,58,0.00,CLR,,0.00,14.0,WeatherDisplay:10.37,2014-01-02 22:24:00,
2014-01-02 16:29:00,-0.8,-12.4,30.44,NW,322,2.3,4.0,57,0.00,CLR,,0.00,11.0,WeatherDisplay:10.37,2014-01-02 22:29:00,
2014-01-02 16:34:00,-0.9,-12.5,30.43,NW,322,1.7,3.5,57,0.00,CLR,,0.00,9.0,WeatherDisplay:10.37,2014-01-02 22:34:00,
2014-01-02 16:39:00,-1.2,-12.8,30.43,NW,322,0.3,1.2,57,0.00,CLR,,0.00,7.0,WeatherDisplay:10.37,2014-01-02 22:39:00,
2014-01-02 16:44:00,-1.4,-12.6,30.43,NW,322,1.6,3.0,58,0.00,CLR,,0.00,5.0,WeatherDisplay:10.37,2014-01-02 22:44:00,
2014-01-02 16:49:00,-1.2,-12.1,30.43,NW,322,0.7,3.5,59,0.00,CLR,,0.00,5.0,WeatherDisplay:10.37,2014-01-02 22:49:00,
2014-01-02 16:54:00,-1.2,-11.8,30.44,NW,321,1.2,2.3,60,0.00,CLR,,0.00,0.0,WeatherDisplay:10.37,2014-01-02 22:54:00,
2014-01-02 16:59:00,-1.4,-11.9,30.43,NW,321,1.0,2.3,60,0.00,CLR,,0.00,0.0,WeatherDisplay:10.37,2014-01-02 22:59:00,
2014-01-02 17:04:00,-1.8,-12.3,30.44,NW,321,0.0,0.0,60,0.00,CLR,,0.00,0.0,WeatherDisplay:10.37,2014-01-02 23:04:00,
2014-01-02 17:09:00,-2.1,-12.6,30.44,NW,321,0.0,0.0,60,0.00,CLR,,0.00,0.0,WeatherDisplay:10.37,2014-01-02 23:09:00,
2014-01-02 17:14:00,-2.7,-13.2,30.44,NW,320,1.0,2.3,60,0.00,CLR,,0.00,0.0,WeatherDisplay:10.37,2014-01-02 23:14:00,
2014-01-02 17:19:00,-3.0,-13.1,30.43,NW,320,0.0,1.2,61,0.00,CLR,,0.00,0.0,WeatherDisplay:10.37,2014-01-02 23:19:00,
2014-01-02 17:24:00,-3.2,-13.0,30.43,NW,320,0.1,1.2,62,0.00,CLR,,0.00,0.0,WeatherDisplay:10.37,2014-01-02 23:24:00,
2014-01-02 17:29:00,-3.2,-13.0,30.43,NW,320,0.1,1.2,62,0.00,CLR,,0.00,0.0,WeatherDisplay:10.37,2014-01-02 23:29:00,
2014-01-02 17:34:00,-3.3,-13.1,30.43,NW,320,0.4,2.3,62,0.00,CLR,,0.00,0.0,WeatherDisplay:10.37,2014-01-02 23:34:00,
2014-01-02 17:39:00,-3.3,-12.8,30.43,NW,320,0.2,1.2,63,0.00,CLR,,0.00,0.0,WeatherDisplay:10.37,2014-01-02 23:39:00,
2014-01-02 17:44:00,-3.4,-12.9,30.42,NW,320,0.3,1.2,63,0.00,CLR,,0.00,0.0,WeatherDisplay:10.37,2014-01-02 23:44:00,
2014-01-02 17:49:00,-4.1,-13.5,30.42,NW,320,0.5,1.2,63,0.00,CLR,,0.00,0.0,WeatherDisplay:10.37,2014-01-02 23:49:00,
2014-01-02 17:54:00,-4.7,-13.8,30.42,NW,320,0.3,1.2,64,0.00,CLR,,0.00,0.0,WeatherDisplay:10.37,2014-01-02 23:54:00,
2014-01-02 17:59:00,-5.0,-14.1,30.42,NW,320,1.4,2.3,64,0.00,CLR,,0.00,0.0,WeatherDisplay:10.37,2014-01-02 23:59:00,
2014-01-02 18:04:00,-5.3,-14.1,30.42,NW,320,0.1,1.2,65,0.00,CLR,,0.00,0.0,WeatherDisplay:10.37,2014-01-03 00:04:00,
2014-01-02 18:09:00,-4.8,-13.3,30.42,WSW,250,2.4,4.0,66,0.00,CLR,,0.00,0.0,WeatherDisplay:10.37,2014-01-03 00:09:00,
2014-01-02 18:14:00,-4.7,-13.2,30.42,WSW,250,1.0,2.3,66,0.00,CLR,,0.00,0.0,WeatherDisplay:10.37,2014-01-03 00:14:00,
2014-01-02 18:19:00,-5.0,-13.5,30.42,WSW,250,1.4,2.3,66,0.00,CLR,,0.00,0.0,WeatherDisplay:10.37,2014-01-03 00:19:00,
2014-01-02 18:24:00,-4.9,-13.4,30.42,WSW,250,2.4,3.5,66,0.00,CLR,,0.00,0.0,WeatherDisplay:10.37,2014-01-03 00:24:00,
2014-01-02 18:29:00,-5.1,-13.6,30.42,WSW,250,0.7,2.3,66,0.00,CLR,,0.00,0.0,WeatherDisplay:10.37,2014-01-03 00:29:00,
2014-01-02 18:34:00,-5.2,-13.7,30.42,WSW,250,0.7,3.0,66,0.00,CLR,,0.00,0.0,WeatherDisplay:10.37,2014-01-03 00:34:00,
2014-01-02 18:39:00,-5.3,-13.5,30.42,WSW,250,0.9,2.3,67,0.00,CLR,,0.00,0.0,WeatherDisplay:10.37,2014-01-03 00:39:00,
2014-01-02 18:44:00,-5.4,-13.5,30.41,WSW,250,0.9,2.3,67,0.00,CLR,,0.00,0.0,WeatherDisplay:10.37,2014-01-03 00:44:00,
2014-01-02 18:49:00,-5.6,-13.7,30.41,WSW,250,0.4,2.3,67,0.00,CLR,,0.00,0.0,WeatherDisplay:10.37,2014-01-03 00:49:00,
2014-01-02 18:54:00,-6.1,-13.9,30.41,WSW,250,0.9,2.3,68,0.00,CLR,,0.00,0.0,WeatherDisplay:10.37,2014-01-03 00:54:00,
2014-01-02 18:59:00,-6.8,-14.3,30.41,WSW,250,0.5,1.2,69,0.00,CLR,,0.00,0.0,WeatherDisplay:10.37,2014-01-03 00:59:00,
2014-01-02 19:04:00,-7.0,-14.5,30.41,WSW,250,0.5,1.2,69,0.00,CLR,,0.00,0.0,WeatherDisplay:10.37,2014-01-03 01:04:00,
2014-01-02 19:09:00,-7.0,-14.2,30.41,WSW,250,1.3,3.0,70,0.00,CLR,,0.00,0.0,WeatherDisplay:10.37,2014-01-03 01:09:00,
2014-01-02 19:14:00,-6.4,-13.4,30.41,WSW,250,0.1,1.2,71,0.00,CLR,,0.00,0.0,WeatherDisplay:10.37,2014-01-03 01:14:00,
2014-01-02 19:19:00,-6.7,-13.9,30.41,WSW,250,0.4,1.2,70,0.00,CLR,,0.00,0.0,WeatherDisplay:10.37,2014-01-03 01:19:00,
2014-01-02 19:24:00,-7.3,-14.5,30.41,WSW,250,0.5,2.3,70,0.00,CLR,,0.00,0.0,WeatherDisplay:10.37,2014-01-03 01:24:00,
2014-01-02 19:29:00,-8.2,-15.4,30.40,WSW,250,0.8,1.2,70,0.00,CLR,,0.00,0.0,WeatherDisplay:10.37,2014-01-03 01:29:00,
2014-01-02 19:34:00,-8.8,-15.7,30.40,WSW,250,0.8,1.2,71,0.00,CLR,,0.00,0.0,WeatherDisplay:10.37,2014-01-03 01:34:00,
2014-01-02 19:39:00,-8.7,-15.3,30.40,WSW,250,2.0,2.3,72,0.00,CLR,,0.00,0.0,WeatherDisplay:10.37,2014-01-03 01:39:00,
2014-01-02 19:44:00,-8.3,-14.6,30.40,WSW,250,0.8,2.3,73,0.00,CLR,,0.00,0.0,WeatherDisplay:10.37,2014-01-03 01:44:00,
2014-01-02 19:49:00,-7.8,-14.2,30.39,WSW,250,0.5,1.2,73,0.00,CLR,,0.00,0.0,WeatherDisplay:10.37,2014-01-03 01:49:00,
2014-01-02 19:54:00,-7.5,-13.9,30.38,WSW,250,0.3,2.3,73,0.00,CLR,,0.00,0.0,WeatherDisplay:10.37,2014-01-03 01:54:00,
2014-01-02 19:59:00,-8.0,-14.6,30.38,WSW,250,0.4,1.2,72,0.00,CLR,,0.00,0.0,WeatherDisplay:10.37,2014-01-03 01:59:00,
2014-01-02 20:04:00,-8.4,-14.7,30.38,WSW,250,1.3,3.5,73,0.00,CLR,,0.00,0.0,WeatherDisplay:10.37,2014-01-03 02:04:00,
2014-01-02 20:09:00,-8.8,-15.4,30.38,WSW,250,1.0,2.3,72,0.00,CLR,,0.00,0.0,WeatherDisplay:10.37,2014-01-03 02:09:00,
2014-01-02 20:14:00,-9.2,-15.5,30.38,WSW,248,2.3,3.5,73,0.00,CLR,,0.00,0.0,WeatherDisplay:10.37,2014-01-03 02:14:00,
2014-01-02 20:19:00,-9.1,-15.4,30.38,WSW,248,1.0,2.3,73,0.00,CLR,,0.00,0.0,WeatherDisplay:10.37,2014-01-03 02:19:00,
2014-01-02 20:24:00,-9.1,-15.1,30.38,WSW,248,0.8,2.0,74,0.00,CLR,,0.00,0.0,WeatherDisplay:10.37,2014-01-03 02:24:00,
2014-01-02 20:29:00,-8.7,-14.8,30.37,WSW,248,1.6,3.0,74,0.00,CLR,,0.00,0.0,WeatherDisplay:10.37,2014-01-03 02:29:00,
2014-01-02 20:34:00,-8.6,-14.7,30.36,WSW,248,0.9,2.3,74,0.00,CLR,,0.00,0.0,WeatherDisplay:10.37,2014-01-03 02:34:00,
2014-01-02 20:39:00,-8.9,-15.0,30.36,WSW,248,0.8,2.3,74,0.00,CLR,,0.00,0.0,WeatherDisplay:10.37,2014-01-03 02:39:00,
2014-01-02 20:44:00,-9.0,-15.0,30.35,WSW,248,0.9,2.3,74,0.00,CLR,,0.00,0.0,WeatherDisplay:10.37,2014-01-03 02:44:00,
2014-01-02 20:49:00,-8.6,-14.4,30.36,WSW,248,0.7,3.0,75,0.00,CLR,,0.00,0.0,WeatherDisplay:10.37,2014-01-03 02:49:00,
2014-01-02 20:54:00,-8.4,-14.5,30.36,WSW,248,0.8,2.3,74,0.00,CLR,,0.00,0.0,WeatherDisplay:10.37,2014-01-03 02:54:00,
2014-01-02 20:59:00,-8.7,-14.8,30.36,WSW,248,0.2,1.2,74,0.00,CLR,,0.00,0.0,WeatherDisplay:10.37,2014-01-03 02:59:00,
2014-01-02 21:04:00,-9.1,-15.1,30.35,WSW,248,0.4,1.2,74,0.00,CLR,,0.00,0.0,WeatherDisplay:10.37,2014-01-03 03:04:00,
2014-01-02 21:09:00,-9.5,-15.5,30.35,WSW,248,0.8,2.3,74,0.00,CLR,,0.00,0.0,WeatherDisplay:10.37,2014-01-03 03:09:00,
2014-01-02 21:14:00,-9.3,-15.1,30.35,WSW,248,1.4,3.5,75,0.00,CLR,,0.00,0.0,WeatherDisplay:10.37,2014-01-03 03:14:00,
2014-01-02 21:19:00,-9.3,-15.1,30.35,WSW,248,0.3,1.2,75,0.00,CLR,,0.00,0.0,WeatherDisplay:10.37,2014-01-03 03:19:00,
2014-01-02 21:24:00,-9.0,-14.8,30.35,WSW,248,0.1,1.2,75,0.00,CLR,,0.00,0.0,WeatherDisplay:10.37,2014-01-03 03:24:00,
2014-01-02 21:29:00,-8.8,-14.6,30.35,WSW,248,0.5,1.2,75,0.00,CLR,,0.00,0.0,WeatherDisplay:10.37,2014-01-03 03:29:00,
2014-01-02 21:34:00,-8.7,-14.8,30.35,WSW,248,0.6,2.3,74,0.00,CLR,,0.00,0.0,WeatherDisplay:10.37,2014-01-03 03:34:00,
2014-01-02 21:39:00,-8.7,-14.8,30.35,WSW,248,1.1,2.3,74,0.00,CLR,,0.00,0.0,WeatherDisplay:10.37,2014-01-03 03:39:00,
2014-01-02 21:44:00,-8.9,-15.0,30.34,WSW,248,1.0,2.3,74,0.00,CLR,,0.00,0.0,WeatherDisplay:10.37,2014-01-03 03:44:00,
2014-01-02 21:49:00,-9.6,-15.6,30.34,WSW,248,0.6,1.2,74,0.00,CLR,,0.00,0.0,WeatherDisplay:10.37,2014-01-03 03:49:00,
2014-01-02 21:54:00,-9.7,-15.5,30.34,WSW,248,0.6,2.0,75,0.00,CLR,,0.00,0.0,WeatherDisplay:10.37,2014-01-03 03:54:00,
2014-01-02 21:59:00,-9.9,-15.7,30.34,WSW,248,1.0,2.3,75,0.00,CLR,,0.00,0.0,WeatherDisplay:10.37,2014-01-03 03:59:00,
2014-01-02 22:04:00,-10.1,-15.9,30.34,WSW,238,2.7,4.0,75,0.00,CLR,,0.00,0.0,WeatherDisplay:10.37,2014-01-03 04:04:00,
2014-01-02 22:09:00,-10.3,-15.8,30.33,SSW,194,0.6,2.3,76,0.00,CLR,,0.00,0.0,WeatherDisplay:10.37,2014-01-03 04:09:00,
2014-01-02 22:14:00,-10.1,-15.6,30.33,SSW,194,0.9,2.3,76,0.00,CLR,,0.00,0.0,WeatherDisplay:10.37,2014-01-03 04:14:00,
2014-01-02 22:19:00,-10.2,-15.4,30.32,SSW,194,1.3,3.0,77,0.00,CLR,,0.00,0.0,WeatherDisplay:10.37,2014-01-03 04:19:00,
2014-01-02 22:24:00,-10.4,-15.6,30.32,SSW,195,1.9,4.0,77,0.00,CLR,,0.00,0.0,WeatherDisplay:10.37,2014-01-03 04:24:00,
2014-01-02 22:29:00,-10.6,-15.6,30.32,South,183,2.3,4.0,78,0.00,CLR,,0.00,0.0,WeatherDisplay:10.37,2014-01-03 04:29:00,
2014-01-02 22:34:00,-10.0,-14.7,30.32,South,184,1.6,2.3,79,0.00,CLR,,0.00,0.0,WeatherDisplay:10.37,2014-01-03 04:34:00,
2014-01-02 22:39:00,-9.9,-14.6,30.32,South,184,1.9,4.0,79,0.00,CLR,,0.00,0.0,WeatherDisplay:10.37,2014-01-03 04:39:00,
2014-01-02 22:44:00,-9.8,-14.5,30.32,South,191,1.6,3.0,79,0.00,CLR,,0.00,0.0,WeatherDisplay:10.37,2014-01-03 04:44:00,
2014-01-02 22:49:00,-9.8,-14.5,30.32,South,189,2.2,3.5,79,0.00,CLR,,0.00,0.0,WeatherDisplay:10.37,2014-01-03 04:49:00,
2014-01-02 22:54:00,-9.7,-14.4,30.32,South,189,1.5,3.5,79,0.00,CLR,,0.00,0.0,WeatherDisplay:10.37,2014-01-03 04:54:00,
2014-01-02 22:59:00,-9.5,-14.2,30.32,South,191,2.5,3.5,79,0.00,CLR,,0.00,0.0,WeatherDisplay:10.37,2014-01-03 04:59:00,
2014-01-02 23:01:00,-9.5,-14.2,30.32,South,191,2.2,3.5,79,0.00,CLR,,0.00,0.0,WeatherDisplay:10.37,2014-01-03 05:01:00,
2014-01-02 23:03:00,-9.5,-14.2,30.32,SW,225,3.0,5.0,79,0.00,CLR,,0.00,0.0,WeatherDisplay:10.37,2014-01-03 05:03:00,
2014-01-02 23:04:00,-9.5,-14.2,30.32,SW,225,1.3,4.6,79,0.00,CLR,,0.00,0.0,WeatherDisplay:10.37,2014-01-03 05:04:00,
2014-01-02 23:06:00,-9.5,-14.2,30.32,SW,225,1.1,3.0,79,0.00,CLR,,0.00,0.0,WeatherDisplay:10.37,2014-01-03 05:06:00,
2014-01-02 23:09:00,-9.3,-13.8,30.32,SW,225,1.8,4.0,80,0.00,CLR,,0.00,0.0,WeatherDisplay:10.37,2014-01-03 05:09:00,
2014-01-02 23:14:00,-9.0,-13.8,30.32,SW,225,1.1,3.5,79,0.00,CLR,,0.00,0.0,WeatherDisplay:10.37,2014-01-03 05:14:00,
2014-01-02 23:19:00,-9.0,-13.8,30.32,SW,223,2.2,3.5,79,0.00,CLR,,0.00,0.0,WeatherDisplay:10.37,2014-01-03 05:19:00,
2014-01-02 23:22:00,-9.0,-13.8,30.32,South,181,2.5,4.0,79,0.00,CLR,,0.00,0.0,WeatherDisplay:10.37,2014-01-03 05:22:00,
2014-01-02 23:27:00,-8.9,-13.7,30.31,South,190,3.8,6.0,79,0.00,CLR,,0.00,0.0,WeatherDisplay:10.37,2014-01-03 05:27:00,
2014-01-02 23:32:00,-8.7,-13.5,30.31,SSE,163,3.1,5.0,79,0.00,CLR,,0.00,0.0,WeatherDisplay:10.37,2014-01-03 05:32:00,
2014-01-02 23:37:00,-8.7,-13.5,30.31,South,175,2.7,5.0,79,0.00,CLR,,0.00,0.0,WeatherDisplay:10.37,2014-01-03 05:37:00,
2014-01-02 23:42:00,-8.8,-13.6,30.30,South,186,1.0,5.0,79,0.00,CLR,,0.00,0.0,WeatherDisplay:10.37,2014-01-03 05:42:00,
2014-01-02 23:47:00,-9.2,-13.9,30.30,SSW,198,1.7,4.0,79,0.00,CLR,,0.00,0.0,WeatherDisplay:10.37,2014-01-03 05:47:00,
2014-01-02 23:52:00,-9.4,-14.1,30.30,SSW,203,2.8,5.0,79,0.00,CLR,,0.00,0.0,WeatherDisplay:10.37,2014-01-03 05:52:00,
2014-01-02 23:57:00,-9.2,-13.7,30.30,SSW,203,1.7,3.0,80,0.00,CLR,,0.00,0.0,WeatherDisplay:10.37,2014-01-03 05:57:00,